ΕΜΥ, Εθνική Μετεωρολογική Υπηρεσία - Δελτία Καιρού, Προγνώσεις

ΑΕΡΟΝΑΥΤΙΛΙΑ

GREEK AIRPORTS CODES

LGPZ 300150Z 00000KT 9999 FEW025 14/13 Q1018=

EUROPEAN AIRPORTS CODES

LGMG 291500Z 00000KT 9999 FEW025 22/11 Q1015=